Time;durP1;ratioP1;P1;durP2;ratioP2;P2;SDS_P1;SDS_P2;PMS_P1;PMS_P2;Temp;Humidity;BMP_temperature;BMP_pressure;BME280_temperature;BME280_humidity;BME280_pressure;Samples;Min_cycle;Max_cycle;Signal;HPM_P1;HPM_P2
2022/07/04 00:00:23;;;;;;;0.00;0.00;;;;;;;;;;4922150;29;20047;-83
2022/07/04 00:02:49;;;;;;;0.00;0.00;;;;;;;;;;4937730;29;20051;-82
2022/07/04 00:05:15;;;;;;;0.00;0.00;;;;;;;;;;4955010;29;20063;-83
2022/07/04 00:07:43;;;;;;;0.00;0.00;;;;;;;;;;4937692;29;20047;-83
2022/07/04 00:10:10;;;;;;;0.00;0.00;;;;;;;;;;4938080;29;20434;-82
2022/07/04 00:12:36;;;;;;;0.00;0.00;;;;;;;;;;4922015;29;20390;-83
2022/07/04 00:15:03;;;;;;;0.00;0.00;;;;;;;;;;4937730;29;20039;-83
2022/07/04 00:17:29;;;;;;;0.00;0.00;;;;;;;;;;4937531;29;20506;-83
2022/07/04 00:19:55;;;;;;;0.00;0.00;;;;;;;;;;4937626;29;20055;-82
2022/07/04 00:22:21;;;;;;;0.00;0.00;;;;;;;;;;4937814;29;20050;-82
2022/07/04 00:24:47;;;;;;;0.00;0.00;;;;;;;;;;4937680;29;20047;-82
2022/07/04 00:27:13;;;;;;;0.00;0.00;;;;;;;;;;4921187;28;20062;-82
2022/07/04 00:29:39;;;;;;;0.00;0.00;;;;;;;;;;4937456;29;20135;-83
2022/07/04 00:32:06;;;;;;;0.00;0.00;;;;;;;;;;4937432;29;20054;-83
2022/07/04 00:34:32;;;;;;;0.00;0.00;;;;;;;;;;4937439;29;20050;-83
2022/07/04 00:36:58;;;;;;;0.00;0.00;;;;;;;;;;4937525;29;20451;-83
2022/07/04 00:39:24;;;;;;;0.00;0.00;;;;;;;;;;4937824;29;20039;-83
2022/07/04 00:41:50;;;;;;;0.00;0.00;;;;;;;;;;4954474;29;20047;-83
2022/07/04 00:44:16;;;;;;;0.00;0.00;;;;;;;;;;4937463;29;20083;-83
2022/07/04 00:46:43;;;;;;;0.00;0.00;;;;;;;;;;4937575;29;20460;-83
2022/07/04 00:49:10;;;;;;;0.00;0.00;;;;;;;;;;4937279;29;20090;-83
2022/07/04 00:51:38;;;;;;;0.00;0.00;;;;;;;;;;4937287;29;20043;-83
2022/07/04 00:54:05;;;;;;;0.00;0.00;;;;;;;;;;4937285;29;20126;-83
2022/07/04 00:56:31;;;;;;;0.00;0.00;;;;;;;;;;4937477;29;20047;-83
2022/07/04 00:58:59;;;;;;;0.00;0.00;;;;;;;;;;4937718;29;20355;-83
2022/07/04 01:01:25;;;;;;;0.00;0.00;;;;;;;;;;4921440;29;20051;-82
2022/07/04 01:03:51;;;;;;;0.00;0.00;;;;;;;;;;4937312;29;20470;-82
2022/07/04 01:06:17;;;;;;;0.00;0.00;;;;;;;;;;4937264;29;20093;-82
2022/07/04 01:08:44;;;;;;;0.13;0.03;;;;;;;;;;4937037;29;20055;-83
2022/07/04 01:11:10;;;;;;;0.00;0.00;;;;;;;;;;4937319;29;20067;-83
2022/07/04 01:13:36;;;;;;;0.00;0.00;;;;;;;;;;4937297;29;20137;-83
2022/07/04 01:16:04;;;;;;;0.00;0.00;;;;;;;;;;4937459;29;20133;-83
2022/07/04 01:18:30;;;;;;;0.00;0.00;;;;;;;;;;4936970;29;20191;-83
2022/07/04 01:20:56;;;;;;;0.00;0.00;;;;;;;;;;4921655;29;20083;-82
2022/07/04 01:23:22;;;;;;;0.00;0.00;;;;;;;;;;4936933;29;20486;-82
2022/07/04 01:25:52;;;;;;;0.00;0.00;;;;;;;;;;4937011;29;20043;-82
2022/07/04 01:28:21;;;;;;;0.00;0.00;;;;;;;;;;4937035;29;20054;-83
2022/07/04 01:30:48;;;;;;;0.00;0.00;;;;;;;;;;4937068;29;20036;-83
2022/07/04 01:33:14;;;;;;;0.00;0.00;;;;;;;;;;4937119;29;20541;-82
2022/07/04 01:35:40;;;;;;;0.00;0.00;;;;;;;;;;4937381;29;20123;-83
2022/07/04 01:38:06;;;;;;;0.00;0.00;;;;;;;;;;4936975;29;20491;-83
2022/07/04 01:40:33;;;;;;;0.00;0.00;;;;;;;;;;4939550;29;20102;-83
2022/07/04 01:42:59;;;;;;;0.00;0.00;;;;;;;;;;4940393;29;20047;-83
2022/07/04 01:45:25;;;;;;;0.00;0.00;;;;;;;;;;4940725;29;20043;-83
2022/07/04 01:47:51;;;;;;;0.00;0.00;;;;;;;;;;4940269;29;20079;-82
2022/07/04 01:50:17;;;;;;;0.00;0.00;;;;;;;;;;4940301;29;20483;-82
2022/07/04 01:52:43;;;;;;;0.00;0.00;;;;;;;;;;4940196;29;20050;-83
2022/07/04 01:55:13;;;;;;;0.00;0.00;;;;;;;;;;4957712;29;20102;-83
2022/07/04 01:57:39;;;;;;;0.00;0.00;;;;;;;;;;4940406;29;20395;-83
2022/07/04 02:02:52;;;;;;;0.00;0.00;;;;;;;;;;4957236;29;20047;-82
2022/07/04 02:05:18;;;;;;;0.00;0.00;;;;;;;;;;4940354;29;20047;-82
2022/07/04 02:07:44;;;;;;;0.00;0.00;;;;;;;;;;4939840;29;20402;-82
2022/07/04 02:10:10;;;;;;;0.00;0.00;;;;;;;;;;4940227;29;20403;-83
2022/07/04 02:15:21;;;;;;;0.00;0.00;;;;;;;;;;4957084;29;20055;-83
2022/07/04 02:17:47;;;;;;;0.00;0.00;;;;;;;;;;4939987;29;20253;-82
2022/07/04 02:20:13;;;;;;;0.00;0.00;;;;;;;;;;4956912;29;20059;-82
2022/07/04 02:22:39;;;;;;;0.00;0.00;;;;;;;;;;4939704;29;20047;-82
2022/07/04 02:25:05;;;;;;;0.00;0.00;;;;;;;;;;4939735;29;20097;-83
2022/07/04 02:27:32;;;;;;;0.00;0.00;;;;;;;;;;4939789;29;20098;-82
2022/07/04 02:29:58;;;;;;;0.00;0.00;;;;;;;;;;4939995;29;20486;-83
2022/07/04 02:32:24;;;;;;;0.00;0.00;;;;;;;;;;4939505;29;20479;-82
2022/07/04 02:34:50;;;;;;;0.00;0.00;;;;;;;;;;4956865;29;20043;-83
2022/07/04 02:37:16;;;;;;;0.00;0.00;;;;;;;;;;4939596;29;20122;-83
2022/07/04 02:39:42;;;;;;;0.00;0.00;;;;;;;;;;4939440;29;20078;-83
2022/07/04 02:42:08;;;;;;;0.00;0.00;;;;;;;;;;4939581;29;20039;-83
2022/07/04 02:44:34;;;;;;;0.00;0.00;;;;;;;;;;4939405;29;20062;-83
2022/07/04 02:47:00;;;;;;;0.00;0.00;;;;;;;;;;4939481;29;20447;-82
2022/07/04 02:49:26;;;;;;;0.00;0.00;;;;;;;;;;4956552;29;20043;-83
2022/07/04 02:51:52;;;;;;;0.00;0.00;;;;;;;;;;4938381;29;20047;-83
2022/07/04 02:54:18;;;;;;;0.00;0.00;;;;;;;;;;4939295;29;20506;-82
2022/07/04 02:56:44;;;;;;;0.00;0.00;;;;;;;;;;4939257;29;20047;-82
2022/07/04 02:59:10;;;;;;;0.00;0.00;;;;;;;;;;4939024;29;20516;-82
2022/07/04 03:01:36;;;;;;;0.00;0.00;;;;;;;;;;4939461;29;20047;-83
2022/07/04 03:04:03;;;;;;;0.00;0.00;;;;;;;;;;4939066;29;20059;-82
2022/07/04 03:06:29;;;;;;;0.00;0.00;;;;;;;;;;4939245;29;20043;-82
2022/07/04 03:08:56;;;;;;;0.00;0.00;;;;;;;;;;4922945;29;20447;-82
2022/07/04 03:11:21;;;;;;;0.00;0.00;;;;;;;;;;4956241;29;20066;-82
2022/07/04 03:13:47;;;;;;;0.00;0.00;;;;;;;;;;4955779;29;20071;-82
2022/07/04 03:16:13;;;;;;;0.00;0.00;;;;;;;;;;4956099;29;20050;-83
2022/07/04 03:18:39;;;;;;;0.00;0.00;;;;;;;;;;4938564;29;20063;-83
2022/07/04 03:21:05;;;;;;;0.00;0.00;;;;;;;;;;4923012;29;20054;-82
2022/07/04 03:23:32;;;;;;;0.00;0.00;;;;;;;;;;4938443;29;20042;-83
2022/07/04 03:25:58;;;;;;;0.00;0.00;;;;;;;;;;4938702;29;20054;-82
2022/07/04 03:28:24;;;;;;;0.00;0.00;;;;;;;;;;4938520;29;20047;-83
2022/07/04 03:30:50;;;;;;;0.00;0.00;;;;;;;;;;4938567;29;20521;-83
2022/07/04 03:33:16;;;;;;;0.00;0.00;;;;;;;;;;4938369;29;20098;-82
2022/07/04 03:35:42;;;;;;;0.00;0.00;;;;;;;;;;4938453;29;20422;-82
2022/07/04 03:38:08;;;;;;;0.00;0.00;;;;;;;;;;4938335;29;20051;-83
2022/07/04 03:40:35;;;;;;;0.00;0.00;;;;;;;;;;4938672;29;20124;-82
2022/07/04 03:43:01;;;;;;;0.00;0.00;;;;;;;;;;4938540;29;20051;-82
2022/07/04 03:45:27;;;;;;;0.00;0.00;;;;;;;;;;4938374;29;20050;-82
2022/07/04 03:47:53;;;;;;;0.00;0.00;;;;;;;;;;4955439;29;20039;-82
2022/07/04 03:50:19;;;;;;;0.00;0.00;;;;;;;;;;4938221;29;20035;-83
2022/07/04 03:52:46;;;;;;;0.00;0.00;;;;;;;;;;4938813;29;20126;-82
2022/07/04 03:55:12;;;;;;;0.00;0.00;;;;;;;;;;4955199;29;20039;-83
2022/07/04 03:57:38;;;;;;;0.00;0.00;;;;;;;;;;4938322;29;20079;-82
2022/07/04 04:00:04;;;;;;;0.00;0.00;;;;;;;;;;4922202;29;20089;-83
2022/07/04 04:02:30;;;;;;;0.00;0.00;;;;;;;;;;4937943;29;20102;-81
2022/07/04 04:07:41;;;;;;;0.00;0.00;;;;;;;;;;4955421;29;20043;-83
2022/07/04 04:10:07;;;;;;;0.00;0.00;;;;;;;;;;4955147;29;20046;-84
2022/07/04 04:12:33;;;;;;;0.00;0.00;;;;;;;;;;4937907;29;20042;-83
2022/07/04 04:14:59;;;;;;;0.00;0.00;;;;;;;;;;4937878;29;20134;-83
2022/07/04 04:17:25;;;;;;;0.00;0.00;;;;;;;;;;4937825;29;20050;-83
2022/07/04 04:19:51;;;;;;;0.00;0.00;;;;;;;;;;4954640;29;20455;-83
2022/07/04 04:22:17;;;;;;;0.00;0.00;;;;;;;;;;4937813;29;20050;-82
2022/07/04 04:24:43;;;;;;;0.00;0.00;;;;;;;;;;4937474;29;20094;-83
2022/07/04 04:27:09;;;;;;;0.00;0.00;;;;;;;;;;4938033;29;20047;-82
2022/07/04 04:29:35;;;;;;;0.00;0.00;;;;;;;;;;4937449;29;20581;-83
2022/07/04 04:32:01;;;;;;;0.00;0.00;;;;;;;;;;4937904;29;20043;-83
2022/07/04 04:34:27;;;;;;;0.00;0.00;;;;;;;;;;4937395;29;20039;-83
2022/07/04 04:36:52;;;;;;;0.00;0.00;;;;;;;;;;4937792;29;20082;-83
2022/07/04 04:39:18;;;;;;;0.00;0.00;;;;;;;;;;4937335;29;20043;-83
2022/07/04 04:41:44;;;;;;;0.00;0.00;;;;;;;;;;4937619;29;20087;-84
2022/07/04 04:44:10;;;;;;;0.00;0.00;;;;;;;;;;4937317;29;20434;-83
2022/07/04 04:46:36;;;;;;;0.00;0.00;;;;;;;;;;4937795;29;20129;-83
2022/07/04 04:49:02;;;;;;;0.00;0.00;;;;;;;;;;4937200;29;20047;-83
2022/07/04 04:51:29;;;;;;;0.10;0.10;;;;;;;;;;4937834;29;20043;-84
2022/07/04 04:53:54;;;;;;;0.00;0.00;;;;;;;;;;4937341;29;20494;-84
2022/07/04 04:56:21;;;;;;;0.00;0.00;;;;;;;;;;4937519;29;20043;-84
2022/07/04 04:58:47;;;;;;;0.00;0.00;;;;;;;;;;4937493;29;20047;-84
2022/07/04 05:01:13;;;;;;;0.00;0.00;;;;;;;;;;4954364;29;20069;-84
2022/07/04 05:03:39;;;;;;;0.10;0.10;;;;;;;;;;4937321;29;20047;-82
2022/07/04 05:06:04;;;;;;;0.00;0.00;;;;;;;;;;4937391;29;20055;-82
2022/07/04 05:08:30;;;;;;;0.00;0.00;;;;;;;;;;4937406;29;20125;-83
2022/07/04 05:10:56;;;;;;;0.00;0.00;;;;;;;;;;4921360;29;20110;-83
2022/07/04 05:13:22;;;;;;;0.00;0.00;;;;;;;;;;4921812;28;20078;-83
2022/07/04 05:15:48;;;;;;;0.00;0.00;;;;;;;;;;4940111;29;20486;-83
2022/07/04 05:18:15;;;;;;;0.00;0.00;;;;;;;;;;4940896;29;20043;-83
2022/07/04 05:20:41;;;;;;;0.00;0.00;;;;;;;;;;4940748;29;20051;-83
2022/07/04 05:23:07;;;;;;;0.05;0.00;;;;;;;;;;4941004;29;20079;-83
2022/07/04 05:25:33;;;;;;;0.00;0.00;;;;;;;;;;4940868;29;20050;-83
2022/07/04 05:27:59;;;;;;;0.00;0.00;;;;;;;;;;4924937;29;20051;-83
2022/07/04 05:30:26;;;;;;;0.00;0.00;;;;;;;;;;4940835;29;20042;-83
2022/07/04 05:32:52;;;;;;;0.00;0.00;;;;;;;;;;4940868;29;20050;-83
2022/07/04 05:35:18;;;;;;;0.00;0.00;;;;;;;;;;4957613;29;20043;-83
2022/07/04 05:37:43;;;;;;;0.00;0.00;;;;;;;;;;4958110;29;20174;-83
2022/07/04 05:40:10;;;;;;;0.00;0.00;;;;;;;;;;4940476;29;20051;-83
2022/07/04 05:42:36;;;;;;;0.00;0.00;;;;;;;;;;4957832;29;20487;-83
2022/07/04 05:45:03;;;;;;;0.22;0.05;;;;;;;;;;4924424;29;20134;-83
2022/07/04 05:47:29;;;;;;;0.00;0.00;;;;;;;;;;4957688;29;20043;-83
2022/07/04 05:49:55;;;;;;;0.00;0.00;;;;;;;;;;4940209;29;20480;-83
2022/07/04 05:52:20;;;;;;;0.00;0.00;;;;;;;;;;4940519;29;20039;-84
2022/07/04 05:54:48;;;;;;;0.00;0.00;;;;;;;;;;4957375;29;20035;-83
2022/07/04 05:57:14;;;;;;;0.00;0.00;;;;;;;;;;4940286;29;20050;-82
2022/07/04 05:59:40;;;;;;;0.00;0.00;;;;;;;;;;4957271;29;20062;-82
2022/07/04 06:02:06;;;;;;;0.00;0.00;;;;;;;;;;4940300;29;20070;-83
2022/07/04 06:04:32;;;;;;;0.00;0.00;;;;;;;;;;4940107;29;20043;-83
2022/07/04 06:06:58;;;;;;;0.00;0.00;;;;;;;;;;4924402;29;20139;-84
2022/07/04 06:09:24;;;;;;;0.00;0.00;;;;;;;;;;4940090;29;20075;-83
2022/07/04 06:11:50;;;;;;;0.00;0.00;;;;;;;;;;4939861;29;20122;-83
2022/07/04 06:14:16;;;;;;;0.00;0.00;;;;;;;;;;4939999;29;20047;-83
2022/07/04 06:16:42;;;;;;;0.00;0.00;;;;;;;;;;4939930;29;20039;-83
2022/07/04 06:19:08;;;;;;;0.00;0.00;;;;;;;;;;4956954;29;20113;-83
2022/07/04 06:21:34;;;;;;;0.00;0.00;;;;;;;;;;4939685;29;20058;-83
2022/07/04 06:24:01;;;;;;;0.00;0.00;;;;;;;;;;4939843;29;20055;-83
2022/07/04 06:26:26;;;;;;;0.00;0.00;;;;;;;;;;4939617;29;20115;-84
2022/07/04 06:28:53;;;;;;;0.00;0.00;;;;;;;;;;4939838;29;20322;-83
2022/07/04 06:31:19;;;;;;;0.00;0.00;;;;;;;;;;4939953;29;20043;-84
2022/07/04 06:36:30;;;;;;;0.00;0.00;;;;;;;;;;4958356;28;20167;-83
2022/07/04 06:38:56;;;;;;;0.00;0.00;;;;;;;;;;4958854;28;20050;-83
2022/07/04 06:41:22;;;;;;;0.00;0.00;;;;;;;;;;4958143;28;20498;-83
2022/07/04 06:43:48;;;;;;;0.00;0.00;;;;;;;;;;4958177;28;20093;-82
2022/07/04 06:46:15;;;;;;;0.00;0.00;;;;;;;;;;4975291;28;20043;-83
2022/07/04 06:48:41;;;;;;;0.00;0.00;;;;;;;;;;4958018;28;20053;-85
2022/07/04 06:51:07;;;;;;;0.00;0.00;;;;;;;;;;4958060;28;20042;-83
2022/07/04 06:53:33;;;;;;;0.00;0.00;;;;;;;;;;4958372;28;20042;-81
2022/07/04 06:55:59;;;;;;;0.00;0.00;;;;;;;;;;4958292;28;20129;-80
2022/07/04 06:58:25;;;;;;;0.00;0.00;;;;;;;;;;4958099;28;20082;-80
2022/07/04 07:00:51;;;;;;;0.00;0.00;;;;;;;;;;4957968;28;20125;-83
2022/07/04 07:03:17;;;;;;;0.00;0.00;;;;;;;;;;4958291;28;20102;-85
2022/07/04 07:05:43;;;;;;;0.00;0.00;;;;;;;;;;4957509;28;20074;-85
2022/07/04 07:08:09;;;;;;;0.00;0.00;;;;;;;;;;4957973;28;20082;-83
2022/07/04 07:10:35;;;;;;;0.25;0.10;;;;;;;;;;4957731;28;20078;-83
2022/07/04 07:13:02;;;;;;;0.00;0.00;;;;;;;;;;4957964;28;20047;-83
2022/07/04 07:15:28;;;;;;;0.00;0.00;;;;;;;;;;4957335;28;20074;-83
2022/07/04 07:17:54;;;;;;;0.00;0.00;;;;;;;;;;4975243;28;20114;-83
2022/07/04 07:20:20;;;;;;;0.00;0.00;;;;;;;;;;4955625;28;20165;-83
2022/07/04 07:22:46;;;;;;;0.00;0.00;;;;;;;;;;4974865;28;20038;-83
2022/07/04 07:25:13;;;;;;;0.00;0.00;;;;;;;;;;4974824;28;20494;-83
2022/07/04 07:27:40;;;;;;;0.00;0.00;;;;;;;;;;4941276;28;20043;-83
2022/07/04 07:30:07;;;;;;;0.00;0.00;;;;;;;;;;4974826;28;20093;-84
2022/07/04 07:32:33;;;;;;;0.00;0.00;;;;;;;;;;4974409;28;20039;-82
2022/07/04 07:34:59;;;;;;;0.00;0.00;;;;;;;;;;4957498;28;20035;-82
2022/07/04 07:37:26;;;;;;;0.00;0.00;;;;;;;;;;4956483;28;20046;-82
2022/07/04 07:39:52;;;;;;;0.00;0.00;;;;;;;;;;4957627;28;20049;-82
2022/07/04 07:42:18;;;;;;;0.00;0.00;;;;;;;;;;4952764;28;20451;-84
2022/07/04 07:44:46;;;;;;;0.00;0.00;;;;;;;;;;4955385;29;20145;-83
2022/07/04 07:47:15;;;;;;;0.00;0.00;;;;;;;;;;4922595;29;20039;-83
2022/07/04 07:49:41;;;;;;;0.00;0.00;;;;;;;;;;4938132;29;20063;-83
2022/07/04 07:52:07;;;;;;;0.00;0.00;;;;;;;;;;4938101;29;20047;-83
2022/07/04 07:54:33;;;;;;;0.00;0.00;;;;;;;;;;4938316;29;20086;-83
2022/07/04 07:56:59;;;;;;;0.00;0.00;;;;;;;;;;4955105;29;20498;-83
2022/07/04 07:59:25;;;;;;;0.00;0.00;;;;;;;;;;4938059;29;20043;-83
2022/07/04 08:01:51;;;;;;;0.00;0.00;;;;;;;;;;4937901;29;20047;-83
2022/07/04 08:04:37;;;;;;;0.00;0.00;;;;;;;;;;4938230;29;20047;-83
2022/07/04 08:07:04;;;;;;;0.00;0.00;;;;;;;;;;4955315;29;20054;-82
2022/07/04 08:09:30;;;;;;;0.00;0.00;;;;;;;;;;4955063;29;20062;-82
2022/07/04 08:11:56;;;;;;;0.00;0.00;;;;;;;;;;4938248;29;20047;-83
2022/07/04 08:14:22;;;;;;;0.00;0.00;;;;;;;;;;4938267;29;20431;-82
2022/07/04 08:16:48;;;;;;;0.00;0.00;;;;;;;;;;4937678;29;20049;-83
2022/07/04 08:19:14;;;;;;;0.00;0.00;;;;;;;;;;4937658;29;20075;-86
2022/07/04 08:21:40;;;;;;;0.00;0.00;;;;;;;;;;4937577;29;20055;-87
2022/07/04 08:24:07;;;;;;;0.00;0.00;;;;;;;;;;4937683;29;20077;-83
2022/07/04 08:26:33;;;;;;;0.00;0.00;;;;;;;;;;4937527;29;20055;-83
2022/07/04 08:28:59;;;;;;;0.00;0.00;;;;;;;;;;4921849;29;20046;-83
2022/07/04 08:31:28;;;;;;;0.00;0.00;;;;;;;;;;4938111;29;20043;-87
2022/07/04 08:33:54;;;;;;;0.00;0.00;;;;;;;;;;4921729;29;20039;-85
2022/07/04 08:36:20;;;;;;;0.00;0.00;;;;;;;;;;4937375;29;20569;-86
2022/07/04 08:38:46;;;;;;;0.00;0.00;;;;;;;;;;4937678;29;20376;-85
2022/07/04 08:41:15;;;;;;;0.00;0.00;;;;;;;;;;4953727;29;20039;-87
2022/07/04 08:43:41;;;;;;;0.00;0.00;;;;;;;;;;4921856;28;20110;-85
2022/07/04 08:46:09;;;;;;;0.00;0.00;;;;;;;;;;4937433;29;20043;-85
2022/07/04 08:48:38;;;;;;;0.00;0.00;;;;;;;;;;4937662;29;20051;-86
2022/07/04 08:51:14;;;;;;;0.00;0.00;;;;;;;;;;4925246;29;20049;-87
2022/07/04 08:53:44;;;;;;;0.00;0.00;;;;;;;;;;4941616;28;20039;-85
2022/07/04 08:58:56;;;;;;;0.00;0.00;;;;;;;;;;4941353;29;20047;-85
2022/07/04 09:01:22;;;;;;;0.00;0.00;;;;;;;;;;4941189;29;20050;-84
2022/07/04 09:03:51;;;;;;;0.00;0.00;;;;;;;;;;4941106;28;20082;-84
2022/07/04 09:06:17;;;;;;;0.00;0.00;;;;;;;;;;4941135;29;20075;-84
2022/07/04 09:08:43;;;;;;;0.00;0.00;;;;;;;;;;4940977;29;20078;-85
2022/07/04 09:11:09;;;;;;;0.00;0.00;;;;;;;;;;4941001;29;20509;-84
2022/07/04 09:13:35;;;;;;;0.00;0.00;;;;;;;;;;4940886;28;20095;-84
2022/07/04 09:16:01;;;;;;;0.00;0.00;;;;;;;;;;4940956;29;20479;-85
2022/07/04 09:18:35;;;;;;;0.00;0.00;;;;;;;;;;4925040;29;22210;-84
2022/07/04 09:21:02;;;;;;;0.00;0.00;;;;;;;;;;4941053;29;20110;-85
2022/07/04 09:23:29;;;;;;;0.00;0.00;;;;;;;;;;4940884;28;20051;-86
2022/07/04 09:26:14;;;;;;;0.00;0.00;;;;;;;;;;4941253;29;20122;-92
2022/07/04 09:28:41;;;;;;;0.00;0.00;;;;;;;;;;4924837;29;20047;-85
2022/07/04 09:31:21;;;;;;;0.00;0.00;;;;;;;;;;4941080;29;20035;-91
2022/07/04 09:33:57;;;;;;;0.00;0.00;;;;;;;;;;4940911;28;20130;-90
2022/07/04 09:36:24;;;;;;;0.00;0.00;;;;;;;;;;4941192;29;20047;-89
2022/07/04 09:39:11;;;;;;;0.00;0.00;;;;;;;;;;4930947;29;20058;-88
2022/07/04 09:41:56;;;;;;;0.00;0.00;;;;;;;;;;4938693;29;20119;-89
2022/07/04 09:44:23;;;;;;;0.00;0.00;;;;;;;;;;4906036;29;20044;-85
2022/07/04 09:46:49;;;;;;;0.00;0.00;;;;;;;;;;4921519;29;20040;-86
2022/07/04 11:45:34;;;;;;;0.00;0.00;;;;;;;;;;5131540;28;20392;-92
2022/07/04 11:48:00;;;;;;;0.00;0.00;;;;;;;;;;5130718;28;20525;-88
2022/07/04 11:50:29;;;;;;;0.00;0.00;;;;;;;;;;5130580;27;20032;-90
2022/07/04 11:52:56;;;;;;;0.00;0.00;;;;;;;;;;5130549;28;20046;-90
2022/07/04 11:55:22;;;;;;;0.00;0.00;;;;;;;;;;5113668;28;20401;-89
2022/07/04 11:57:50;;;;;;;0.00;0.00;;;;;;;;;;5130576;28;20134;-83
2022/07/04 12:00:17;;;;;;;0.00;0.00;;;;;;;;;;5111416;28;20046;-84
2022/07/04 12:02:48;;;;;;;0.00;0.00;;;;;;;;;;5129613;28;20130;-84
2022/07/04 12:05:14;;;;;;;0.00;0.00;;;;;;;;;;5129291;28;20130;-85
2022/07/04 12:07:41;;;;;;;0.52;0.10;;;;;;;;;;5129536;28;20194;-85
2022/07/04 12:10:15;;;;;;;0.00;0.00;;;;;;;;;;5129549;28;20031;-84
2022/07/04 12:12:57;;;;;;;0.00;0.00;;;;;;;;;;5129446;28;20161;-84
2022/07/04 12:15:24;;;;;;;0.00;0.00;;;;;;;;;;5129330;27;20370;-84
2022/07/04 12:17:54;;;;;;;0.00;0.00;;;;;;;;;;5129308;27;20050;-84
2022/07/04 12:20:21;;;;;;;0.00;0.00;;;;;;;;;;5130327;27;20039;-84
2022/07/04 12:22:52;;;;;;;0.00;0.00;;;;;;;;;;5129241;28;20478;-85
2022/07/04 12:25:24;;;;;;;0.00;0.00;;;;;;;;;;5129130;27;20118;-84
2022/07/04 12:27:56;;;;;;;0.00;0.00;;;;;;;;;;5129409;28;20047;-84
2022/07/04 12:30:22;;;;;;;0.00;0.00;;;;;;;;;;5130410;27;20073;-85
2022/07/04 12:32:50;;;;;;;0.00;0.00;;;;;;;;;;5129258;27;20386;-85
2022/07/04 12:35:34;;;;;;;0.00;0.00;;;;;;;;;;5128660;28;20042;-84
2022/07/04 12:38:07;;;;;;;0.00;0.00;;;;;;;;;;5129188;28;20039;-86
2022/07/04 12:40:35;;;;;;;0.00;0.00;;;;;;;;;;5128446;28;20039;-86
2022/07/04 12:43:01;;;;;;;0.00;0.00;;;;;;;;;;5111770;28;20082;-85
2022/07/04 12:45:42;;;;;;;0.00;0.00;;;;;;;;;;5129787;27;20069;-85
2022/07/04 12:48:14;;;;;;;0.00;0.00;;;;;;;;;;5127448;28;20043;-85
2022/07/04 12:50:40;;;;;;;0.00;0.00;;;;;;;;;;5129796;27;20547;-86
2022/07/04 12:53:06;;;;;;;0.00;0.00;;;;;;;;;;5120815;28;20040;-85
2022/07/04 12:55:32;;;;;;;0.00;0.00;;;;;;;;;;5114545;28;20071;-84
2022/07/04 12:57:58;;;;;;;0.25;0.00;;;;;;;;;;5115249;28;20052;-85
2022/07/04 13:00:24;;;;;;;0.00;0.00;;;;;;;;;;5114523;28;20429;-85
2022/07/04 13:02:50;;;;;;;0.00;0.00;;;;;;;;;;5114834;28;20043;-85
2022/07/04 13:05:16;;;;;;;0.00;0.00;;;;;;;;;;5115554;27;20487;-85
2022/07/04 13:07:42;;;;;;;0.00;0.00;;;;;;;;;;5114552;28;20039;-86
2022/07/04 13:10:08;;;;;;;0.00;0.00;;;;;;;;;;5114909;28;20490;-87
2022/07/04 13:12:34;;;;;;;0.00;0.00;;;;;;;;;;5114947;28;20039;-87
2022/07/04 13:15:01;;;;;;;0.00;0.00;;;;;;;;;;5114416;28;20515;-87
2022/07/04 13:17:27;;;;;;;0.00;0.00;;;;;;;;;;5114971;28;20070;-87
2022/07/04 13:19:53;;;;;;;0.00;0.00;;;;;;;;;;5114635;28;20509;-90
2022/07/04 13:22:23;;;;;;;0.00;0.00;;;;;;;;;;5115027;28;20056;-89
2022/07/04 13:24:50;;;;;;;0.00;0.00;;;;;;;;;;5115063;28;20043;-89
2022/07/04 13:27:16;;;;;;;0.00;0.00;;;;;;;;;;5097495;28;20051;-86
2022/07/04 13:29:42;;;;;;;0.00;0.00;;;;;;;;;;5114178;28;20047;-85
2022/07/04 13:32:08;;;;;;;0.00;0.00;;;;;;;;;;5114284;28;20146;-85
2022/07/04 13:34:35;;;;;;;0.00;0.00;;;;;;;;;;5097008;28;20445;-86
2022/07/04 13:37:01;;;;;;;0.00;0.00;;;;;;;;;;5114557;28;20382;-86
2022/07/04 13:39:27;;;;;;;0.00;0.00;;;;;;;;;;5113923;28;20043;-86
2022/07/04 13:41:53;;;;;;;0.00;0.00;;;;;;;;;;5113868;28;20052;-86
2022/07/04 13:44:19;;;;;;;0.00;0.00;;;;;;;;;;5113840;28;20044;-85
2022/07/04 13:46:45;;;;;;;0.00;0.00;;;;;;;;;;5113964;28;20122;-85
2022/07/04 13:49:11;;;;;;;0.00;0.00;;;;;;;;;;5113697;28;20063;-85
2022/07/04 13:51:38;;;;;;;0.00;0.00;;;;;;;;;;5113941;28;20043;-84
2022/07/04 13:54:04;;;;;;;0.00;0.00;;;;;;;;;;5096700;28;20063;-86
2022/07/04 13:56:30;;;;;;;0.00;0.00;;;;;;;;;;5113860;28;20474;-86
2022/07/04 13:58:56;;;;;;;0.00;0.00;;;;;;;;;;5113715;28;20039;-85
2022/07/04 14:01:22;;;;;;;0.00;0.00;;;;;;;;;;5113391;28;20047;-85
2022/07/04 14:03:49;;;;;;;0.00;0.00;;;;;;;;;;5113065;28;20050;-86
2022/07/04 14:06:16;;;;;;;0.00;0.00;;;;;;;;;;5112860;28;20050;-84
2022/07/04 14:08:42;;;;;;;0.00;0.00;;;;;;;;;;5113488;28;20044;-84
2022/07/04 14:11:08;;;;;;;0.00;0.00;;;;;;;;;;5113381;28;20405;-84
2022/07/04 14:13:34;;;;;;;0.00;0.00;;;;;;;;;;5096380;28;20036;-85
2022/07/04 14:16:01;;;;;;;0.00;0.00;;;;;;;;;;5113255;28;20071;-85
2022/07/04 14:18:27;;;;;;;0.00;0.00;;;;;;;;;;5113801;28;20040;-85
2022/07/04 14:20:53;;;;;;;0.00;0.00;;;;;;;;;;5096086;28;20455;-85
2022/07/04 14:23:39;;;;;;;0.00;0.00;;;;;;;;;;5113490;28;20122;-85
2022/07/04 14:26:05;;;;;;;0.00;0.00;;;;;;;;;;5113045;28;20043;-85
2022/07/04 14:28:32;;;;;;;0.00;0.00;;;;;;;;;;5113118;28;20074;-87
2022/07/04 14:30:58;;;;;;;0.00;0.00;;;;;;;;;;5112821;28;20043;-85
2022/07/04 14:33:24;;;;;;;0.00;0.00;;;;;;;;;;5113071;28;20083;-85
2022/07/04 14:35:50;;;;;;;0.00;0.00;;;;;;;;;;5095814;28;20043;-85
2022/07/04 14:38:16;;;;;;;0.00;0.00;;;;;;;;;;5113153;28;20130;-86
2022/07/04 14:40:45;;;;;;;0.00;0.00;;;;;;;;;;5112987;28;20060;-85
2022/07/04 14:43:11;;;;;;;0.00;0.00;;;;;;;;;;5095815;28;20040;-85
2022/07/04 14:45:37;;;;;;;0.00;0.00;;;;;;;;;;5095832;28;20390;-85
2022/07/04 14:48:04;;;;;;;0.00;0.00;;;;;;;;;;5112834;28;20465;-86
2022/07/04 14:50:29;;;;;;;0.00;0.00;;;;;;;;;;5112674;28;20479;-85
2022/07/04 14:52:55;;;;;;;0.00;0.00;;;;;;;;;;5112709;28;20120;-85
2022/07/04 14:55:21;;;;;;;0.00;0.00;;;;;;;;;;5095448;28;20446;-86
2022/07/04 14:57:47;;;;;;;0.00;0.00;;;;;;;;;;5112832;28;20070;-84
2022/07/04 15:00:13;;;;;;;0.00;0.00;;;;;;;;;;5112484;28;20036;-86
2022/07/04 15:02:39;;;;;;;0.00;0.00;;;;;;;;;;5112585;28;20035;-86
2022/07/04 15:05:07;;;;;;;0.00;0.00;;;;;;;;;;5095234;28;20436;-85
2022/07/04 15:07:34;;;;;;;0.00;0.00;;;;;;;;;;5112852;28;20040;-90
2022/07/04 15:10:00;;;;;;;0.00;0.00;;;;;;;;;;5112343;28;20510;-85
2022/07/04 15:12:26;;;;;;;0.00;0.00;;;;;;;;;;5112258;28;20489;-84
2022/07/04 15:14:52;;;;;;;0.00;0.00;;;;;;;;;;5112584;28;20047;-84
2022/07/04 15:17:18;;;;;;;0.00;0.00;;;;;;;;;;5094908;28;20122;-87
2022/07/04 15:25:13;;;;;;;0.00;0.00;;;;;;;;;;5112048;28;20051;-85
2022/07/04 15:27:39;;;;;;;0.00;0.00;;;;;;;;;;5112159;28;20040;-86
2022/07/04 15:30:05;;;;;;;0.00;0.00;;;;;;;;;;5112153;28;20035;-85
2022/07/04 15:32:31;;;;;;;0.00;0.00;;;;;;;;;;5112073;28;20039;-85
2022/07/04 15:34:57;;;;;;;0.00;0.00;;;;;;;;;;5112382;28;20047;-84
2022/07/04 15:37:23;;;;;;;0.00;0.00;;;;;;;;;;5111780;28;20567;-85
2022/07/04 15:39:50;;;;;;;0.00;0.00;;;;;;;;;;5112209;28;20493;-84
2022/07/04 15:42:16;;;;;;;0.00;0.00;;;;;;;;;;5111568;28;20067;-84
2022/07/04 15:44:43;;;;;;;0.00;0.00;;;;;;;;;;5112105;28;20048;-85
2022/07/04 15:47:09;;;;;;;0.00;0.00;;;;;;;;;;5111739;28;20039;-84
2022/07/04 15:49:36;;;;;;;0.00;0.00;;;;;;;;;;5112026;28;20051;-85
2022/07/04 15:52:03;;;;;;;0.00;0.00;;;;;;;;;;5111899;28;20047;-84
2022/07/04 15:54:30;;;;;;;0.00;0.00;;;;;;;;;;5094829;28;20104;-84
2022/07/04 15:56:56;;;;;;;0.00;0.00;;;;;;;;;;5113306;28;20113;-84
2022/07/04 15:59:28;;;;;;;0.00;0.00;;;;;;;;;;5111992;28;20065;-85
2022/07/04 16:01:54;;;;;;;0.00;0.00;;;;;;;;;;5111767;28;20530;-85
2022/07/04 16:04:20;;;;;;;0.00;0.00;;;;;;;;;;5111788;28;20119;-84
2022/07/04 16:06:47;;;;;;;0.00;0.00;;;;;;;;;;5112957;28;20044;-84
2022/07/04 16:09:13;;;;;;;0.00;0.00;;;;;;;;;;5111776;28;20394;-84
2022/07/04 16:11:41;;;;;;;0.00;0.00;;;;;;;;;;5111569;28;20043;-84
2022/07/04 16:14:07;;;;;;;0.00;0.00;;;;;;;;;;5111773;28;20067;-84
2022/07/04 16:16:34;;;;;;;0.00;0.00;;;;;;;;;;5111504;28;20235;-84
2022/07/04 16:19:04;;;;;;;0.00;0.00;;;;;;;;;;5111930;28;20066;-84
2022/07/04 16:21:30;;;;;;;0.00;0.00;;;;;;;;;;5111622;28;20051;-84
2022/07/04 16:23:56;;;;;;;0.00;0.00;;;;;;;;;;5111861;28;20131;-84
2022/07/04 16:26:22;;;;;;;0.00;0.00;;;;;;;;;;5094589;28;20039;-84
2022/07/04 16:28:48;;;;;;;0.00;0.00;;;;;;;;;;5114203;28;20507;-84
2022/07/04 16:31:14;;;;;;;0.00;0.00;;;;;;;;;;5115260;28;20119;-84
2022/07/04 16:33:40;;;;;;;0.00;0.00;;;;;;;;;;5115671;28;20043;-84
2022/07/04 16:36:06;;;;;;;0.00;0.00;;;;;;;;;;5098557;28;20383;-84
2022/07/04 16:38:32;;;;;;;0.00;0.00;;;;;;;;;;5115352;28;20047;-85
2022/07/04 16:40:59;;;;;;;0.00;0.00;;;;;;;;;;5114905;28;20052;-85
2022/07/04 16:43:25;;;;;;;0.00;0.00;;;;;;;;;;5098177;28;20046;-84
2022/07/04 16:45:51;;;;;;;0.00;0.00;;;;;;;;;;5115078;28;20031;-84
2022/07/04 16:48:17;;;;;;;0.00;0.00;;;;;;;;;;5114954;28;20036;-84
2022/07/04 16:50:43;;;;;;;0.00;0.00;;;;;;;;;;5115451;28;20040;-84
2022/07/04 16:53:09;;;;;;;0.00;0.00;;;;;;;;;;5114985;28;20478;-84
2022/07/04 16:55:35;;;;;;;0.00;0.00;;;;;;;;;;5097847;28;20123;-84